Time;durP1;ratioP1;P1;durP2;ratioP2;P2;SDS_P1;SDS_P2;PMS_P1;PMS_P2;Temp;Humidity;BMP_temperature;BMP_pressure;BME280_temperature;BME280_humidity;BME280_pressure;Samples;Min_cycle;Max_cycle;Signal;HPM_P1;HPM_P2
2022/12/16 00:01:52;;;;;;;54.70;27.10;;;;;;;;;;5018561;28;20046;-80
2022/12/16 00:04:18;;;;;;;57.17;29.27;;;;;;;;;;5007448;28;20030;-78
2022/12/16 00:06:44;;;;;;;58.78;29.42;;;;;;;;;;4993879;28;20038;-80
2022/12/16 00:09:09;;;;;;;57.88;29.70;;;;;;;;;;5004461;28;20100;-78
2022/12/16 00:11:35;;;;;;;48.38;25.35;;;;;;;;;;5005303;28;20631;-80
2022/12/16 00:14:00;;;;;;;70.90;31.83;;;;;;;;;;4998400;28;20064;-79
2022/12/16 00:16:26;;;;;;;68.15;29.65;;;;;;;;;;5004534;28;20046;-78
2022/12/16 00:18:52;;;;;;;67.25;31.73;;;;;;;;;;5005681;28;20085;-79
2022/12/16 00:21:19;;;;;;;87.00;36.70;;;;;;;;;;5000307;28;20061;-80
2022/12/16 00:23:45;;;;;;;60.33;27.05;;;;;;;;;;4999835;28;20057;-77
2022/12/16 00:26:11;;;;;;;73.93;33.47;;;;;;;;;;5006516;28;20044;-77
2022/12/16 00:28:38;;;;;;;65.68;29.25;;;;;;;;;;5001954;28;20035;-78
2022/12/16 00:31:04;;;;;;;77.70;36.17;;;;;;;;;;5006732;28;20141;-77
2022/12/16 00:33:30;;;;;;;91.85;39.47;;;;;;;;;;5002562;28;20061;-78
2022/12/16 00:35:56;;;;;;;59.33;28.95;;;;;;;;;;4997804;28;20388;-78
2022/12/16 00:38:24;;;;;;;65.28;29.95;;;;;;;;;;5007100;28;20030;-80
2022/12/16 00:40:49;;;;;;;58.00;29.67;;;;;;;;;;5000852;28;20053;-78
2022/12/16 00:43:16;;;;;;;84.35;35.78;;;;;;;;;;5003441;28;20046;-78
2022/12/16 00:45:42;;;;;;;77.53;32.22;;;;;;;;;;4986425;28;20031;-78
2022/12/16 00:48:07;;;;;;;91.95;36.13;;;;;;;;;;5001827;28;20038;-77
2022/12/16 00:50:34;;;;;;;78.60;35.00;;;;;;;;;;4999703;28;20042;-77
2022/12/16 00:52:59;;;;;;;77.03;32.28;;;;;;;;;;5001849;28;20038;-77
2022/12/16 00:55:26;;;;;;;57.35;27.10;;;;;;;;;;5023392;28;20048;-78
2022/12/16 00:57:51;;;;;;;76.95;33.63;;;;;;;;;;5013765;28;20039;-78
2022/12/16 01:00:17;;;;;;;64.45;30.38;;;;;;;;;;5013252;28;20117;-78
2022/12/16 01:02:45;;;;;;;88.10;35.55;;;;;;;;;;5013747;28;20121;-77
2022/12/16 01:05:12;;;;;;;69.15;31.05;;;;;;;;;;5003358;28;20108;-78
2022/12/16 01:07:38;;;;;;;60.97;28.23;;;;;;;;;;4995958;28;20034;-78
2022/12/16 01:10:05;;;;;;;86.55;37.20;;;;;;;;;;4998414;28;20099;-78
2022/12/16 01:12:32;;;;;;;70.82;33.28;;;;;;;;;;4996051;28;20045;-78
2022/12/16 01:14:59;;;;;;;82.80;34.78;;;;;;;;;;4995199;28;20109;-77
2022/12/16 01:17:25;;;;;;;79.18;33.10;;;;;;;;;;5001121;28;20044;-79
2022/12/16 01:19:52;;;;;;;76.40;33.35;;;;;;;;;;4976558;28;20038;-78
2022/12/16 01:22:18;;;;;;;94.90;37.00;;;;;;;;;;5005771;28;20045;-78
2022/12/16 01:24:43;;;;;;;77.22;37.60;;;;;;;;;;5011334;28;20064;-79
2022/12/16 01:27:10;;;;;;;81.38;34.40;;;;;;;;;;5009185;28;20038;-78
2022/12/16 01:29:36;;;;;;;87.95;37.00;;;;;;;;;;5000617;28;20082;-78
2022/12/16 01:32:02;;;;;;;60.85;28.42;;;;;;;;;;5008880;28;20054;-78
2022/12/16 01:34:28;;;;;;;56.40;29.52;;;;;;;;;;5000335;28;20687;-78
2022/12/16 01:36:53;;;;;;;75.75;33.83;;;;;;;;;;4999783;28;20042;-79
2022/12/16 01:39:19;;;;;;;80.78;35.10;;;;;;;;;;4998972;28;20738;-78
2022/12/16 01:41:44;;;;;;;57.75;28.45;;;;;;;;;;4985562;28;20038;-79
2022/12/16 01:44:21;;;;;;;71.70;33.47;;;;;;;;;;5005937;28;20046;-79
2022/12/16 01:46:53;;;;;;;79.03;33.53;;;;;;;;;;4997978;28;20038;-79
2022/12/16 01:49:42;;;;;;;79.35;32.47;;;;;;;;;;5000809;28;20090;-77
2022/12/16 01:52:15;;;;;;;76.95;31.25;;;;;;;;;;5002432;28;20042;-77
2022/12/16 01:54:51;;;;;;;68.75;31.80;;;;;;;;;;5005624;28;20099;-78
2022/12/16 01:57:24;;;;;;;72.97;31.83;;;;;;;;;;4999240;28;20038;-78
2022/12/16 01:59:52;;;;;;;62.05;30.95;;;;;;;;;;5007415;28;20121;-78
2022/12/16 02:02:18;;;;;;;93.85;37.75;;;;;;;;;;5007851;28;20030;-79
2022/12/16 02:05:19;;;;;;;82.28;34.20;;;;;;;;;;4990656;28;20107;-77
2022/12/16 02:07:29;;;;;;;42.67;24.17;;;;;;;;;;5016767;28;20427;-78
2022/12/16 02:09:56;;;;;;;74.45;31.63;;;;;;;;;;5011173;28;20038;-79
2022/12/16 02:12:45;;;;;;;77.38;34.42;;;;;;;;;;5006323;28;20097;-78
2022/12/16 02:15:35;;;;;;;;;;;;;;;;;;5001257;28;20034;-78
2022/12/16 02:18:19;;;;;;;66.45;29.30;;;;;;;;;;4998109;28;19913;-78
2022/12/16 02:21:06;;;;;;;73.75;31.35;;;;;;;;;;5004729;28;20046;-77
2022/12/16 02:24:06;;;;;;;79.10;33.70;;;;;;;;;;5006726;28;21079;-77
2022/12/16 02:26:35;;;;;;;95.85;36.78;;;;;;;;;;5004321;28;20050;-78
2022/12/16 02:29:37;;;;;;;96.53;37.17;;;;;;;;;;5012647;28;20117;-79
2022/12/16 02:32:13;;;;;;;86.15;35.85;;;;;;;;;;4990051;28;20048;-78
2022/12/16 02:35:24;;;;;;;86.75;36.60;;;;;;;;;;4988685;28;20047;-78
2022/12/16 02:38:04;;;;;;;68.22;29.85;;;;;;;;;;4972196;28;20384;-78
2022/12/16 02:40:42;;;;;;;84.72;33.45;;;;;;;;;;4999391;28;20057;-78
2022/12/16 02:43:29;;;;;;;104.15;41.35;;;;;;;;;;5006936;28;20413;-79
2022/12/16 02:45:54;;;;;;;77.00;33.13;;;;;;;;;;5017249;28;20042;-76
2022/12/16 02:48:20;;;;;;;81.57;36.65;;;;;;;;;;5006355;28;20042;-76
2022/12/16 02:50:49;;;;;;;101.22;40.83;;;;;;;;;;4987616;28;20073;-78
2022/12/16 02:53:16;;;;;;;103.88;37.97;;;;;;;;;;5006783;28;20034;-79
2022/12/16 02:55:59;;;;;;;68.80;33.63;;;;;;;;;;4993712;28;20038;-77
2022/12/16 02:58:30;;;;;;;102.80;38.72;;;;;;;;;;5003612;28;20030;-77
2022/12/16 03:01:28;;;;;;;124.43;45.25;;;;;;;;;;5011761;28;20034;-78
2022/12/16 03:04:01;;;;;;;120.88;43.63;;;;;;;;;;5003227;28;20109;-78
2022/12/16 03:06:30;;;;;;;81.20;34.55;;;;;;;;;;5000897;28;20045;-79
2022/12/16 03:09:00;;;;;;;131.82;44.47;;;;;;;;;;4995575;28;20034;-79
2022/12/16 03:11:28;;;;;;;127.43;45.63;;;;;;;;;;5000475;28;20038;-79
2022/12/16 03:13:55;;;;;;;100.15;39.67;;;;;;;;;;5000274;28;20074;-80
2022/12/16 03:16:25;;;;;;;126.03;45.17;;;;;;;;;;4996076;28;20621;-79
2022/12/16 03:18:55;;;;;;;142.43;48.63;;;;;;;;;;4995885;28;20510;-80
2022/12/16 03:21:23;;;;;;;111.80;44.72;;;;;;;;;;4991367;28;20053;-78
2022/12/16 03:23:59;;;;;;;115.32;45.80;;;;;;;;;;5000226;28;20430;-81
2022/12/16 03:26:39;;;;;;;81.70;33.20;;;;;;;;;;4991499;28;20085;-79
2022/12/16 03:29:11;;;;;;;100.85;38.00;;;;;;;;;;5004014;28;20501;-79
2022/12/16 03:31:49;;;;;;;94.45;38.83;;;;;;;;;;4993432;28;20565;-77
2022/12/16 03:34:47;;;;;;;109.30;42.13;;;;;;;;;;4997076;28;20044;-78
2022/12/16 03:37:13;;;;;;;91.00;36.78;;;;;;;;;;4977349;28;20074;-80
2022/12/16 03:39:48;;;;;;;67.65;34.45;;;;;;;;;;4962345;28;20076;-79
2022/12/16 03:42:14;;;;;;;87.55;36.97;;;;;;;;;;4975479;28;20074;-80
2022/12/16 03:44:42;;;;;;;95.07;38.60;;;;;;;;;;4972656;28;20113;-78
2022/12/16 03:47:07;;;;;;;86.28;35.53;;;;;;;;;;4974571;28;20058;-80
2022/12/16 03:49:33;;;;;;;90.05;35.85;;;;;;;;;;4974166;28;20066;-78
2022/12/16 03:51:59;;;;;;;84.05;36.90;;;;;;;;;;4974968;28;20042;-79
2022/12/16 03:54:24;;;;;;;91.65;36.85;;;;;;;;;;4982916;28;20101;-80
2022/12/16 03:56:50;;;;;;;115.43;45.92;;;;;;;;;;4974887;28;20517;-79
2022/12/16 03:59:16;;;;;;;90.78;36.45;;;;;;;;;;4977697;28;20034;-79
2022/12/16 04:01:42;;;;;;;88.90;37.72;;;;;;;;;;4975533;28;20061;-79
2022/12/16 04:04:08;;;;;;;98.22;40.47;;;;;;;;;;4977193;28;20053;-81
2022/12/16 04:06:34;;;;;;;95.72;37.05;;;;;;;;;;4970534;28;20825;-79
2022/12/16 04:08:59;;;;;;;74.15;34.80;;;;;;;;;;4967805;28;20034;-78
2022/12/16 04:25:18;;;;;;;87.93;38.42;;;;;;;;;;4995609;28;20037;-77
2022/12/16 04:27:45;;;;;;;73.17;34.23;;;;;;;;;;4991246;28;20053;-79
2022/12/16 04:30:18;;;;;;;93.50;41.03;;;;;;;;;;5001692;28;20289;-79
